Time;durP1;ratioP1;P1;durP2;ratioP2;P2;SDS_P1;SDS_P2;PMS_P1;PMS_P2;Temp;Humidity;BMP_temperature;BMP_pressure;BME280_temperature;BME280_humidity;BME280_pressure;Samples;Min_cycle;Max_cycle;Signal;HPM_P1;HPM_P2
2023/12/12 00:01:07;;;;;;;14.88;3.45;;;;;;;9.62;69.41;100135.00;4126293;28;20073;-70
2023/12/12 00:03:10;;;;;;;18.58;4.15;;;;;;;9.64;69.57;100132.44;4110198;28;20129;-70
2023/12/12 00:05:13;;;;;;;15.55;3.72;;;;;;;9.61;69.15;100128.09;4125814;28;20057;-70
2023/12/12 00:07:17;;;;;;;18.65;3.65;;;;;;;9.57;69.69;100127.16;4127804;28;20436;-70
2023/12/12 00:09:20;;;;;;;12.25;3.08;;;;;;;9.59;69.63;100129.78;4127353;28;20041;-70
2023/12/12 00:11:23;;;;;;;14.88;4.20;;;;;;;9.57;69.57;100127.16;4126941;28;20122;-70
2023/12/12 00:13:26;;;;;;;15.70;3.50;;;;;;;9.55;69.30;100128.00;4127561;28;20132;-70
2023/12/12 00:15:29;;;;;;;20.20;3.72;;;;;;;9.54;69.57;100121.94;4126800;28;20038;-71
2023/12/12 00:17:32;;;;;;;23.80;4.70;;;;;;;9.52;69.60;100133.16;4110148;28;20035;-70
2023/12/12 00:19:40;;;;;;;15.55;4.05;;;;;;;9.49;69.70;100128.81;4127281;28;20078;-71
2023/12/12 00:21:43;;;;;;;10.07;3.40;;;;;;;9.46;69.90;100127.88;4124578;28;20052;-70
2023/12/12 00:23:46;;;;;;;12.43;2.80;;;;;;;9.47;69.58;100121.84;4125126;28;20060;-70
2023/12/12 00:25:49;;;;;;;22.73;4.43;;;;;;;9.42;69.51;100121.81;4108063;28;20043;-70
2023/12/12 00:27:52;;;;;;;16.48;4.28;;;;;;;9.39;69.58;100117.44;4124651;28;20034;-70
2023/12/12 00:29:55;;;;;;;16.58;5.68;;;;;;;9.38;69.95;100114.81;4128554;28;20042;-71
2023/12/12 00:31:58;;;;;;;21.67;5.60;;;;;;;9.38;69.91;100110.50;4130284;28;20407;-71
2023/12/12 00:34:01;;;;;;;14.82;3.45;;;;;;;9.37;69.79;100121.72;4129888;28;20483;-71
2023/12/12 00:36:04;;;;;;;16.35;4.03;;;;;;;9.36;69.78;100120.00;4129033;28;20062;-71
2023/12/12 00:38:07;;;;;;;16.40;3.83;;;;;;;9.35;69.73;100120.84;4130229;28;20042;-70
2023/12/12 00:40:12;;;;;;;23.20;4.10;;;;;;;9.34;69.72;100124.25;4129634;28;20042;-71
2023/12/12 00:42:14;;;;;;;18.40;4.97;;;;;;;9.30;70.11;100127.69;4129963;28;20042;-71
2023/12/12 00:44:17;;;;;;;17.00;3.45;;;;;;;9.31;70.47;100128.56;4126845;28;20436;-72
2023/12/12 00:46:19;;;;;;;13.48;3.35;;;;;;;9.28;70.19;100116.41;4126608;28;20045;-72
2023/12/12 00:48:22;;;;;;;17.45;4.40;;;;;;;9.31;70.57;100129.41;4129859;28;20473;-71
2023/12/12 00:50:24;;;;;;;20.23;5.35;;;;;;;9.30;70.28;100121.63;4130258;28;20374;-70
2023/12/12 00:52:29;;;;;;;16.38;3.55;;;;;;;9.29;70.49;100114.66;4126741;28;20130;-70
2023/12/12 00:54:32;;;;;;;;;;;;;;;9.21;70.40;100117.16;4131630;28;20552;-70
2023/12/12 00:56:36;;;;;;;13.80;4.13;;;;;;;9.23;70.18;100111.16;4129851;28;19922;-70
2023/12/12 00:58:38;;;;;;;18.38;3.58;;;;;;;9.20;70.79;100107.63;4129660;28;20392;-70
2023/12/12 01:00:41;;;;;;;19.17;3.63;;;;;;;9.20;70.42;100105.03;4128488;28;20053;-70
2023/12/12 01:02:43;;;;;;;18.98;4.60;;;;;;;9.19;70.50;100108.50;4129666;28;20106;-70
2023/12/12 01:04:46;;;;;;;14.43;3.30;;;;;;;9.19;70.50;100113.69;4129811;28;20050;-70
2023/12/12 01:06:49;;;;;;;20.30;4.30;;;;;;;9.21;70.73;100107.69;4126658;28;20038;-70
2023/12/12 01:08:52;;;;;;;19.85;4.20;;;;;;;9.20;70.68;100107.63;4130509;28;20038;-69
2023/12/12 01:10:55;;;;;;;17.77;3.38;;;;;;;9.19;70.55;100103.31;4128030;28;20545;-70
2023/12/12 01:13:01;;;;;;;16.67;3.92;;;;;;;9.11;70.87;100102.31;4129321;28;20518;-69
2023/12/12 01:15:05;;;;;;;13.82;3.58;;;;;;;9.13;71.04;100103.25;4112694;28;20046;-69
2023/12/12 01:17:08;;;;;;;19.00;4.10;;;;;;;9.17;71.09;100094.63;4129752;28;20692;-69
2023/12/12 01:19:10;;;;;;;26.35;3.63;;;;;;;9.19;70.69;100092.94;4111436;28;20038;-69
2023/12/12 01:21:13;;;;;;;20.88;4.40;;;;;;;9.17;70.96;100092.03;4130187;28;20049;-69
2023/12/12 01:23:15;;;;;;;20.45;4.90;;;;;;;9.20;70.81;100092.06;4125890;28;20130;-69
2023/12/12 01:25:18;;;;;;;16.95;4.10;;;;;;;9.20;70.62;100086.88;4107976;28;20039;-70
2023/12/12 01:27:20;;;;;;;21.00;4.10;;;;;;;9.22;70.70;100085.22;4110366;28;20117;-69
2023/12/12 01:29:24;;;;;;;17.23;4.03;;;;;;;9.21;70.42;100091.22;4129812;28;20039;-69
2023/12/12 01:31:27;;;;;;;19.80;4.60;;;;;;;9.18;70.78;100080.81;4128430;28;20049;-71
2023/12/12 01:33:29;;;;;;;18.45;4.90;;;;;;;9.15;70.86;100078.19;4130330;28;20042;-70
2023/12/12 01:35:32;;;;;;;19.38;4.05;;;;;;;9.14;71.04;100076.44;4130221;28;20126;-69
2023/12/12 01:37:35;;;;;;;20.63;4.28;;;;;;;9.03;71.64;100081.47;4127552;28;20042;-70
2023/12/12 01:39:38;;;;;;;18.65;4.13;;;;;;;9.03;71.22;100071.13;4129715;28;20042;-70
2023/12/12 01:41:41;;;;;;;16.13;3.83;;;;;;;8.94;71.77;100073.59;4129178;28;20051;-70
2023/12/12 01:43:44;;;;;;;18.13;3.97;;;;;;;8.95;71.95;100071.00;4109803;28;20042;-70
2023/12/12 01:45:48;;;;;;;12.13;3.13;;;;;;;8.93;72.06;100075.28;4129053;28;20050;-70
2023/12/12 01:47:51;;;;;;;21.88;5.00;;;;;;;8.87;72.23;100072.59;4111222;28;20054;-70
2023/12/12 01:49:55;;;;;;;20.60;4.95;;;;;;;8.81;72.46;100075.97;4112768;28;20133;-70
2023/12/12 01:51:58;;;;;;;16.77;3.65;;;;;;;8.76;72.73;100071.56;4128966;28;20038;-70
2023/12/12 01:54:03;;;;;;;14.38;3.50;;;;;;;8.70;72.95;100074.94;4129710;28;20053;-70
2023/12/12 01:56:06;;;;;;;;;;;;;;;8.59;73.59;100074.78;4130129;28;20056;-70
2023/12/12 01:58:09;;;;;;;21.67;5.03;;;;;;;8.59;73.67;100079.09;4112074;28;19966;-70
2023/12/12 02:00:13;;;;;;;19.48;3.80;;;;;;;8.67;73.59;100082.66;4093484;28;20140;-70
2023/12/12 02:02:18;;;;;;;23.33;4.28;;;;;;;8.75;73.46;100075.88;4129631;28;20045;-70
2023/12/12 02:04:21;;;;;;;;;;;;;;;8.71;73.67;100074.09;4130400;28;20146;-70
2023/12/12 02:06:24;;;;;;;18.48;3.80;;;;;;;8.78;73.49;100075.06;4129695;28;19984;-70
2023/12/12 02:08:26;;;;;;;25.50;5.28;;;;;;;8.88;73.00;100074.38;4126864;28;20468;-70
2023/12/12 02:10:31;;;;;;;18.73;4.43;;;;;;;8.95;72.81;100083.97;4109732;28;20501;-70
2023/12/12 02:12:34;;;;;;;21.83;4.68;;;;;;;8.99;72.64;100080.56;4110756;28;20035;-70
2023/12/12 02:14:37;;;;;;;19.90;4.68;;;;;;;8.96;73.07;100077.06;4124984;28;20113;-69
2023/12/12 02:16:40;;;;;;;23.02;5.05;;;;;;;9.01;73.05;100072.78;4128406;28;20104;-69
2023/12/12 02:18:44;;;;;;;14.68;3.63;;;;;;;9.07;73.07;100067.72;4129515;28;20085;-69
2023/12/12 02:20:47;;;;;;;18.40;3.80;;;;;;;9.08;72.70;100069.44;4111437;28;20106;-70
2023/12/12 02:22:51;;;;;;;19.70;4.95;;;;;;;9.14;72.48;100058.28;4113124;28;20511;-69
2023/12/12 02:24:53;;;;;;;23.60;4.50;;;;;;;9.20;72.11;100060.94;4129300;28;20049;-69
2023/12/12 02:26:57;;;;;;;22.13;4.20;;;;;;;9.16;72.40;100061.78;4128392;28;20049;-70
2023/12/12 02:29:00;;;;;;;23.80;5.18;;;;;;;9.16;72.24;100061.78;4130261;28;20042;-69
2023/12/12 02:31:03;;;;;;;23.60;5.70;;;;;;;9.16;72.71;100059.19;4110792;28;20498;-70
2023/12/12 02:33:06;;;;;;;19.95;4.40;;;;;;;9.16;72.61;100061.78;4128770;28;20130;-69
2023/12/12 02:35:09;;;;;;;20.52;4.03;;;;;;;9.16;72.78;100065.25;4127884;28;20725;-69
2023/12/12 02:37:12;;;;;;;20.48;4.03;;;;;;;9.17;72.22;100058.31;4127879;28;20034;-69
2023/12/12 02:39:16;;;;;;;16.70;4.15;;;;;;;9.18;72.02;100062.66;4108845;28;20043;-69
2023/12/12 02:41:19;;;;;;;23.92;5.35;;;;;;;9.12;72.06;100060.84;4126084;28;20034;-70
2023/12/12 02:43:22;;;;;;;19.48;4.25;;;;;;;9.07;72.40;100058.22;4129895;28;20038;-69
2023/12/12 02:45:25;;;;;;;14.38;3.83;;;;;;;9.07;72.80;100059.94;4108662;28;20059;-68
2023/12/12 02:47:28;;;;;;;19.10;4.65;;;;;;;9.07;72.67;100063.38;4127688;28;20084;-68
2023/12/12 02:49:32;;;;;;;17.23;3.30;;;;;;;9.05;72.66;100062.50;4129645;28;20030;-68
2023/12/12 02:51:35;;;;;;;26.85;4.68;;;;;;;9.07;72.80;100060.81;4124735;28;20085;-69
2023/12/12 02:53:38;;;;;;;14.52;4.10;;;;;;;9.08;72.72;100059.06;4127303;28;20072;-69
2023/12/12 02:55:41;;;;;;;16.27;3.80;;;;;;;9.08;72.62;100064.25;4128453;28;20044;-69
2023/12/12 02:57:44;;;;;;;19.17;4.30;;;;;;;9.08;72.61;100054.78;4129251;28;20137;-69
2023/12/12 02:59:47;;;;;;;16.83;3.45;;;;;;;9.09;72.64;100047.84;4127955;28;20058;-69
2023/12/12 03:01:50;;;;;;;19.10;3.70;;;;;;;9.09;72.62;100050.44;4128649;28;20038;-68
2023/12/12 03:03:53;;;;;;;18.90;4.40;;;;;;;9.03;72.67;100046.03;4111017;28;20045;-68
2023/12/12 03:05:56;;;;;;;16.52;4.40;;;;;;;9.02;72.72;100046.03;4126364;28;20472;-69
2023/12/12 03:07:59;;;;;;;24.83;4.07;;;;;;;9.00;72.90;100039.97;4110254;28;20057;-69
2023/12/12 03:10:02;;;;;;;17.00;4.00;;;;;;;8.97;73.20;100038.19;4128605;28;20042;-69
2023/12/12 03:12:07;;;;;;;21.38;4.28;;;;;;;8.96;73.14;100046.81;4108583;28;20432;-69
2023/12/12 03:14:10;;;;;;;16.08;4.10;;;;;;;8.93;73.43;100044.19;4128543;28;20046;-69
2023/12/12 03:16:13;;;;;;;21.20;5.35;;;;;;;8.93;73.35;100046.75;4109582;28;20039;-69
2023/12/12 03:18:16;;;;;;;19.83;4.75;;;;;;;8.94;73.54;100048.53;4128749;28;20038;-69
2023/12/12 03:20:19;;;;;;;19.92;4.18;;;;;;;8.94;73.31;100051.13;4109627;28;20041;-69
2023/12/12 03:22:21;;;;;;;16.75;3.47;;;;;;;8.95;73.58;100051.97;4129065;28;20380;-69
2023/12/12 03:24:24;;;;;;;21.83;4.07;;;;;;;8.98;73.30;100052.00;4129628;28;20046;-69
2023/12/12 03:26:27;;;;;;;21.63;4.45;;;;;;;8.98;73.51;100042.53;4127516;28;20404;-68
2023/12/12 03:28:32;;;;;;;23.42;4.43;;;;;;;8.99;73.94;100041.66;4128608;28;20484;-68
2023/12/12 03:30:35;;;;;;;17.42;3.65;;;;;;;8.96;73.42;100039.03;4126595;28;20034;-67
2023/12/12 03:32:38;;;;;;;16.60;3.90;;;;;;;8.94;73.22;100040.75;4125369;28;20069;-68
2023/12/12 03:34:41;;;;;;;22.00;5.57;;;;;;;8.96;73.88;100051.13;4129060;28;20056;-68
2023/12/12 03:36:44;;;;;;;12.30;3.80;;;;;;;8.93;73.67;100039.00;4128741;28;20034;-68
2023/12/12 03:38:47;;;;;;;19.85;3.63;;;;;;;8.93;73.77;100044.19;4128098;28;20034;-69
2023/12/12 03:40:50;;;;;;;16.70;4.03;;;;;;;8.91;73.76;100043.28;4126137;28;20133;-69
2023/12/12 03:42:52;;;;;;;23.65;4.57;;;;;;;8.90;73.72;100038.94;4126087;28;20039;-68
2023/12/12 03:44:57;;;;;;;21.77;4.45;;;;;;;8.90;73.83;100039.81;4128109;28;20046;-68
2023/12/12 03:47:00;;;;;;;22.83;4.55;;;;;;;8.85;73.40;100045.81;4126863;28;20650;-68
2023/12/12 03:49:02;;;;;;;20.25;3.90;;;;;;;8.82;73.70;100048.31;4125792;28;20073;-68
2023/12/12 03:51:08;;;;;;;17.63;3.75;;;;;;;8.79;73.96;100046.59;4128602;28;20073;-68
2023/12/12 03:53:11;;;;;;;23.33;5.15;;;;;;;8.80;73.99;100029.31;4124042;28;20039;-68
2023/12/12 03:55:15;;;;;;;18.52;5.20;;;;;;;8.81;74.12;100018.09;4127506;28;20041;-69
2023/12/12 03:57:18;;;;;;;16.70;3.75;;;;;;;8.80;74.11;100024.13;4126669;28;20077;-68
2023/12/12 03:59:21;;;;;;;27.00;5.38;;;;;;;8.83;73.87;100019.84;4126091;28;20034;-68
2023/12/12 04:01:25;;;;;;;23.65;5.45;;;;;;;8.84;74.13;100011.22;4125257;28;20049;-68
2023/12/12 04:03:29;;;;;;;22.52;5.97;;;;;;;8.83;74.26;100017.25;4128348;28;20400;-68
2023/12/12 04:05:32;;;;;;;25.85;5.43;;;;;;;8.82;74.44;100012.03;4131116;28;20038;-68
2023/12/12 04:07:34;;;;;;;28.75;5.85;;;;;;;8.82;74.47;100018.13;4113859;28;20127;-68
2023/12/12 04:09:38;;;;;;;21.90;5.68;;;;;;;8.84;74.16;100021.59;4112648;28;20062;-68
2023/12/12 04:11:40;;;;;;;24.23;6.47;;;;;;;8.87;74.42;100010.41;4129752;28;20054;-68
2023/12/12 04:13:43;;;;;;;26.83;6.95;;;;;;;8.90;74.28;100007.84;4131556;28;20173;-68
2023/12/12 04:15:46;;;;;;;29.67;6.18;;;;;;;8.95;73.93;100006.19;4114783;28;20035;-68
2023/12/12 04:17:50;;;;;;;26.08;4.63;;;;;;;8.86;74.04;100006.94;4128350;28;20044;-68
2023/12/12 04:19:53;;;;;;;30.63;5.55;;;;;;;8.83;74.37;100003.41;4129271;28;20569;-69
2023/12/12 04:21:56;;;;;;;22.20;5.68;;;;;;;8.80;74.37;100003.38;4114408;28;20042;-68
2023/12/12 04:23:59;;;;;;;24.88;5.40;;;;;;;8.84;74.08;99998.25;4132027;28;20097;-69
2023/12/12 04:26:02;;;;;;;14.95;4.60;;;;;;;8.76;74.04;100010.25;4128966;28;20049;-70
2023/12/12 04:28:05;;;;;;;15.98;4.15;;;;;;;8.72;74.64;100009.31;4131077;28;20136;-70
2023/12/12 04:30:09;;;;;;;16.48;4.55;;;;;;;8.71;74.95;100001.53;4131693;28;20553;-70
2023/12/12 04:32:12;;;;;;;15.50;4.28;;;;;;;8.71;74.92;100002.38;4132648;28;20041;-70
2023/12/12 04:34:16;;;;;;;15.13;2.97;;;;;;;8.70;75.11;99999.78;4130476;28;20456;-70
2023/12/12 04:36:20;;;;;;;21.75;4.45;;;;;;;8.65;75.39;100002.31;4130631;28;20153;-70
2023/12/12 04:38:23;;;;;;;16.58;4.40;;;;;;;8.68;75.13;99998.91;4131295;28;20034;-70
2023/12/12 04:40:29;;;;;;;19.30;4.45;;;;;;;8.64;75.52;100010.06;4129469;28;20042;-70
2023/12/12 04:42:32;;;;;;;18.75;4.00;;;;;;;8.60;75.53;100008.28;4130797;28;20096;-70
2023/12/12 04:44:35;;;;;;;16.70;4.55;;;;;;;8.57;75.84;100011.69;4109345;28;20041;-70
2023/12/12 04:46:38;;;;;;;16.23;3.53;;;;;;;8.61;75.78;100018.66;4131223;28;20062;-70
2023/12/12 04:48:44;;;;;;;16.55;4.20;;;;;;;8.63;75.78;100014.38;4114043;28;20046;-70
2023/12/12 04:50:48;;;;;;;14.85;4.05;;;;;;;8.68;75.79;100017.03;4124897;28;20042;-70
2023/12/12 04:52:51;;;;;;;16.70;4.53;;;;;;;8.69;75.65;100013.59;4113594;28;20042;-70
2023/12/12 04:54:55;;;;;;;22.27;6.72;;;;;;;8.71;75.33;100004.97;4129267;28;20046;-70
2023/12/12 04:56:58;;;;;;;19.25;4.95;;;;;;;8.74;75.00;100005.03;4130329;28;20038;-70
2023/12/12 04:59:01;;;;;;;20.17;5.40;;;;;;;8.72;75.33;100011.06;4129061;28;20141;-70
2023/12/12 05:01:04;;;;;;;21.08;5.00;;;;;;;8.71;75.23;100002.38;4129408;28;20038;-69
2023/12/12 05:03:07;;;;;;;18.77;4.15;;;;;;;8.73;75.25;99995.53;4130505;28;20065;-69
2023/12/12 05:05:10;;;;;;;18.48;5.13;;;;;;;8.70;75.41;99990.31;4130948;28;20038;-69
2023/12/12 05:07:16;;;;;;;19.77;7.03;;;;;;;8.72;75.08;99992.91;4130205;28;20760;-69
2023/12/12 05:09:19;;;;;;;17.95;4.63;;;;;;;8.67;75.26;99990.25;4129961;28;20073;-70
2023/12/12 05:11:22;;;;;;;16.23;4.68;;;;;;;8.66;75.74;100000.56;4129268;28;20485;-70
2023/12/12 05:13:25;;;;;;;14.38;4.63;;;;;;;8.66;75.66;99996.28;4130401;28;20097;-71
2023/12/12 05:15:29;;;;;;;20.15;5.40;;;;;;;8.65;75.72;99994.53;4129218;28;20044;-71
2023/12/12 05:17:30;;;;;;;16.90;4.95;;;;;;;8.64;75.62;99997.97;4129595;28;20034;-71
2023/12/12 05:19:34;;;;;;;13.95;4.80;;;;;;;8.64;75.66;99995.38;4130457;28;20042;-71
2023/12/12 05:21:37;;;;;;;18.65;5.22;;;;;;;8.67;75.88;99994.56;4128946;28;20060;-71
2023/12/12 05:23:41;;;;;;;21.48;5.90;;;;;;;8.72;75.61;99998.97;4130069;28;20132;-70
2023/12/12 05:25:45;;;;;;;16.45;5.78;;;;;;;8.72;75.57;99993.78;4128192;28;20469;-70
2023/12/12 05:27:48;;;;;;;21.65;5.85;;;;;;;8.68;75.54;99989.41;4111163;28;20054;-70
2023/12/12 05:29:51;;;;;;;18.67;5.43;;;;;;;8.65;75.57;99991.94;4113486;28;20038;-70
2023/12/12 05:31:54;;;;;;;19.02;6.30;;;;;;;8.68;75.79;99997.16;4111150;28;20552;-70
2023/12/12 05:33:57;;;;;;;21.55;6.18;;;;;;;8.70;75.93;99994.59;4129164;28;20034;-70
2023/12/12 05:36:00;;;;;;;20.00;5.82;;;;;;;8.72;75.86;99988.59;4129036;28;20493;-70
2023/12/12 05:38:03;;;;;;;18.63;5.53;;;;;;;8.70;75.62;99987.72;4128334;28;20049;-70
2023/12/12 05:40:08;;;;;;;21.30;6.78;;;;;;;8.72;75.75;99988.59;4112497;28;20054;-70
2023/12/12 05:42:11;;;;;;;20.48;5.85;;;;;;;8.71;76.05;99984.25;4129061;28;20050;-70
2023/12/12 05:44:13;;;;;;;19.33;6.30;;;;;;;8.73;75.51;99987.75;4129768;28;20066;-70
2023/12/12 05:46:16;;;;;;;21.23;6.57;;;;;;;8.75;75.59;99977.41;4113253;28;20141;-69
2023/12/12 05:48:19;;;;;;;19.40;6.28;;;;;;;8.78;75.08;99982.63;4127782;28;20038;-70
2023/12/12 05:50:22;;;;;;;24.65;6.43;;;;;;;8.72;75.52;99967.88;4125147;28;20041;-70
2023/12/12 05:52:25;;;;;;;19.67;6.15;;;;;;;8.73;75.85;99969.63;4110228;28;20046;-69
2023/12/12 05:54:28;;;;;;;22.23;5.88;;;;;;;8.71;75.55;99973.03;4129323;28;20081;-69
2023/12/12 05:56:32;;;;;;;14.77;6.55;;;;;;;8.68;75.79;99973.84;4112824;28;20046;-70
2023/12/12 05:58:34;;;;;;;21.65;6.05;;;;;;;8.68;75.90;99966.06;4128209;28;20070;-69
2023/12/12 06:00:39;;;;;;;17.48;5.82;;;;;;;8.69;75.96;99959.19;4129570;28;20378;-70
2023/12/12 06:02:42;;;;;;;19.70;6.70;;;;;;;8.64;76.09;99959.09;4126731;28;20053;-70
2023/12/12 06:04:48;;;;;;;20.50;5.75;;;;;;;8.67;76.38;99964.34;4109851;28;20043;-69
2023/12/12 06:06:50;;;;;;;19.17;5.82;;;;;;;8.66;76.28;99954.81;4128167;28;20141;-69
2023/12/12 06:08:54;;;;;;;22.23;5.90;;;;;;;8.68;76.15;99947.06;4129870;28;20077;-69
2023/12/12 06:10:57;;;;;;;16.75;5.35;;;;;;;8.68;76.05;99955.72;4112647;28;20038;-69
2023/12/12 06:13:01;;;;;;;24.17;5.78;;;;;;;8.67;75.97;99953.09;4128626;28;20038;-69
2023/12/12 06:15:07;;;;;;;21.00;5.60;;;;;;;8.65;76.23;99960.84;4129427;28;20137;-69
2023/12/12 06:17:11;;;;;;;18.85;4.70;;;;;;;8.64;76.49;99953.91;4129880;28;20484;-69
2023/12/12 06:19:14;;;;;;;19.63;5.90;;;;;;;8.66;76.22;99957.41;4128643;28;20492;-69
2023/12/12 06:21:17;;;;;;;16.38;4.82;;;;;;;8.68;76.17;99947.94;4125680;28;20041;-69
2023/12/12 06:23:20;;;;;;;14.50;4.93;;;;;;;8.62;76.28;99945.25;4129447;28;20101;-69
2023/12/12 06:25:23;;;;;;;20.05;5.38;;;;;;;8.62;76.36;99945.25;4129371;28;20073;-69
2023/12/12 06:27:26;;;;;;;18.38;5.03;;;;;;;8.62;76.44;99942.69;4128844;28;20085;-69
2023/12/12 06:29:30;;;;;;;18.50;5.82;;;;;;;8.63;76.48;99941.84;4130090;28;20873;-69
2023/12/12 06:31:33;;;;;;;13.50;6.03;;;;;;;8.60;76.60;99940.91;4111446;28;20109;-69
2023/12/12 06:33:36;;;;;;;15.20;5.55;;;;;;;8.65;76.58;99931.50;4128976;28;20030;-69
2023/12/12 06:35:39;;;;;;;19.58;4.85;;;;;;;8.65;76.50;99927.16;4112799;28;20436;-69
2023/12/12 06:37:42;;;;;;;14.75;4.90;;;;;;;8.72;76.24;99925.53;4129503;28;20477;-69
2023/12/12 06:39:46;;;;;;;15.95;4.93;;;;;;;8.67;76.29;99922.88;4126001;28;20496;-69
2023/12/12 06:41:48;;;;;;;24.45;5.45;;;;;;;8.71;76.02;99918.59;4127594;28;20048;-69
2023/12/12 06:43:51;;;;;;;21.50;5.25;;;;;;;8.77;75.92;99912.63;4129758;28;20045;-69
2023/12/12 06:45:55;;;;;;;15.98;4.65;;;;;;;8.69;75.96;99910.81;4126712;28;20046;-69
2023/12/12 06:47:58;;;;;;;20.08;4.85;;;;;;;8.60;76.71;99910.69;4128588;28;20088;-69
2023/12/12 06:50:03;;;;;;;14.68;4.55;;;;;;;8.55;77.18;99912.34;4127829;28;20374;-69
2023/12/12 06:52:06;;;;;;;17.08;5.47;;;;;;;8.45;77.23;99910.47;4128903;28;20030;-69
2023/12/12 06:54:09;;;;;;;19.88;4.78;;;;;;;8.52;77.41;99917.50;4126975;28;20056;-70
2023/12/12 06:56:12;;;;;;;18.08;5.68;;;;;;;8.56;77.53;99914.97;4129526;28;20551;-70
2023/12/12 06:58:15;;;;;;;13.43;4.10;;;;;;;8.61;77.35;99912.41;4128839;28;20065;-70
2023/12/12 07:00:19;;;;;;;15.23;4.85;;;;;;;8.65;77.25;99916.81;4127265;28;20042;-70
2023/12/12 07:02:23;;;;;;;17.38;6.63;;;;;;;8.65;77.74;99921.97;4109183;28;20556;-70
2023/12/12 07:04:26;;;;;;;21.63;4.93;;;;;;;8.70;77.35;99912.56;4126130;28;20042;-71
2023/12/12 07:06:29;;;;;;;13.52;3.67;;;;;;;8.70;77.59;99906.50;4126963;28;20044;-70
2023/12/12 07:08:32;;;;;;;14.10;4.25;;;;;;;8.71;77.65;99916.00;4127057;28;20049;-70
2023/12/12 07:10:35;;;;;;;13.98;4.38;;;;;;;8.73;77.87;99916.88;4126927;28;20069;-70
2023/12/12 07:12:38;;;;;;;18.70;4.53;;;;;;;8.76;77.72;99916.97;4127555;28;20026;-70
2023/12/12 07:14:42;;;;;;;18.38;4.18;;;;;;;8.81;77.65;99917.00;4107844;28;20134;-70
2023/12/12 07:16:44;;;;;;;15.25;3.97;;;;;;;8.88;77.11;99921.44;4127905;28;20058;-70
2023/12/12 07:18:48;;;;;;;15.70;4.97;;;;;;;8.88;77.67;99916.25;4126531;28;20042;-70
2023/12/12 07:20:51;;;;;;;13.90;3.13;;;;;;;8.91;77.46;99924.91;4127404;28;20456;-70
2023/12/12 07:22:54;;;;;;;14.73;4.45;;;;;;;8.95;77.66;99922.34;4112068;28;20133;-70
2023/12/12 07:24:56;;;;;;;14.73;4.05;;;;;;;8.98;77.33;99910.31;4114216;28;20045;-70
2023/12/12 07:26:59;;;;;;;15.95;4.38;;;;;;;8.98;77.18;99925.88;4092911;28;20050;-71
2023/12/12 07:29:01;;;;;;;15.95;4.68;;;;;;;8.99;77.11;99918.94;4126271;28;20038;-70
2023/12/12 07:31:05;;;;;;;14.23;3.75;;;;;;;8.99;77.45;99911.16;4125550;28;20042;-71
2023/12/12 07:33:08;;;;;;;12.90;3.10;;;;;;;8.97;77.95;99916.34;4126864;28;20046;-71
2023/12/12 07:35:13;;;;;;;11.57;4.18;;;;;;;8.95;77.90;99919.75;4124832;28;20039;-70
2023/12/12 07:37:17;;;;;;;14.25;3.88;;;;;;;8.97;77.91;99907.69;4111592;28;20130;-70
2023/12/12 07:39:20;;;;;;;12.52;3.40;;;;;;;8.94;78.29;99903.34;4126974;28;20092;-70
2023/12/12 07:41:23;;;;;;;14.30;3.72;;;;;;;8.95;78.25;99893.84;4127326;28;20069;-70
2023/12/12 07:43:26;;;;;;;12.45;3.85;;;;;;;8.89;78.48;99897.22;4127408;28;20044;-70
2023/12/12 07:45:29;;;;;;;14.45;3.65;;;;;;;8.87;78.79;99893.75;4127897;28;20046;-70
2023/12/12 07:47:32;;;;;;;14.35;3.70;;;;;;;8.89;79.02;99900.69;4109848;28;20129;-68
2023/12/12 07:49:45;;;;;;;14.05;3.80;;;;;;;8.90;78.98;99898.97;4127911;28;20114;-67
2023/12/12 07:51:49;;;;;;;11.30;3.13;;;;;;;8.90;79.27;99911.94;4123439;28;20098;-68
2023/12/12 07:53:51;;;;;;;16.35;4.53;;;;;;;8.94;79.35;99924.09;4116129;28;20042;-69
2023/12/12 07:55:54;;;;;;;20.15;5.45;;;;;;;8.95;79.32;99919.75;4122790;28;20522;-67
2023/12/12 07:57:59;;;;;;;12.70;3.55;;;;;;;8.98;79.30;99910.31;4115573;28;20073;-70
2023/12/12 08:00:05;;;;;;;12.75;3.92;;;;;;;8.97;79.92;99895.59;4128442;28;20046;-70
2023/12/12 08:02:13;;;;;;;11.93;3.60;;;;;;;9.03;79.73;99903.44;4123443;28;20038;-70
2023/12/12 08:04:17;;;;;;;16.05;4.35;;;;;;;9.06;79.76;99897.44;4126137;28;20052;-70
2023/12/12 08:06:21;;;;;;;16.83;4.40;;;;;;;9.09;79.99;99895.72;4127621;28;20362;-70
2023/12/12 08:08:25;;;;;;;13.70;3.78;;;;;;;9.16;79.99;99901.00;4115443;28;20565;-71
2023/12/12 08:10:28;;;;;;;14.93;3.78;;;;;;;9.19;79.90;99901.03;4121721;28;20492;-71
2023/12/12 08:12:31;;;;;;;11.32;3.88;;;;;;;9.21;79.58;99904.50;4120011;28;20380;-71
2023/12/12 08:14:34;;;;;;;9.98;3.20;;;;;;;9.26;79.98;99890.72;4125606;28;20476;-71
2023/12/12 08:16:37;;;;;;;12.32;4.03;;;;;;;9.30;79.76;99867.41;4128277;28;20057;-71
2023/12/12 08:18:40;;;;;;;16.75;4.25;;;;;;;9.31;79.91;99862.25;4126060;28;20485;-71
2023/12/12 08:20:43;;;;;;;10.45;3.70;;;;;;;9.31;80.34;99844.06;4124806;28;20030;-71
2023/12/12 08:22:45;;;;;;;11.05;3.50;;;;;;;9.33;80.06;99852.75;4126926;28;20030;-71
2023/12/12 08:24:50;;;;;;;12.88;3.55;;;;;;;9.36;80.40;99847.59;4108616;28;20580;-71
2023/12/12 08:26:54;;;;;;;14.75;4.38;;;;;;;9.33;81.21;99839.78;4125480;28;20038;-71
2023/12/12 08:28:56;;;;;;;11.18;4.32;;;;;;;9.36;81.00;99845.00;4126153;28;20042;-71
2023/12/12 08:30:59;;;;;;;13.23;3.40;;;;;;;9.40;81.12;99836.41;4126401;28;20057;-71
2023/12/12 08:33:03;;;;;;;15.90;4.13;;;;;;;9.44;80.90;99832.09;4128638;28;20555;-71
2023/12/12 08:35:06;;;;;;;16.05;4.35;;;;;;;9.52;81.03;99842.53;4109223;28;20129;-71
2023/12/12 08:37:09;;;;;;;13.60;3.63;;;;;;;9.50;80.56;99850.31;4126834;28;20046;-70
2023/12/12 08:39:13;;;;;;;11.77;3.42;;;;;;;9.54;80.58;99846.88;4124796;28;20049;-71
2023/12/12 08:41:17;;;;;;;10.05;3.70;;;;;;;9.56;80.89;99857.28;4124612;28;20050;-71
2023/12/12 08:43:20;;;;;;;13.63;4.20;;;;;;;9.53;81.46;99850.31;4126135;28;20067;-71
2023/12/12 08:45:23;;;;;;;11.93;3.67;;;;;;;9.58;81.46;99842.59;4109354;28;20050;-71
2023/12/12 08:47:27;;;;;;;10.60;4.18;;;;;;;9.61;80.99;99847.81;4126462;28;20047;-71
2023/12/12 08:49:33;;;;;;;15.48;4.20;;;;;;;9.61;81.52;99848.69;4110361;28;20047;-71
2023/12/12 08:51:37;;;;;;;14.98;4.57;;;;;;;9.60;81.16;99838.28;4128588;28;20042;-70
2023/12/12 08:53:40;;;;;;;14.27;4.20;;;;;;;9.59;81.16;99845.22;4128903;28;20042;-70
2023/12/12 08:55:43;;;;;;;11.80;4.50;;;;;;;9.58;81.78;99840.00;4130305;28;20720;-70
2023/12/12 08:57:48;;;;;;;17.85;5.28;;;;;;;9.55;81.92;99826.97;4127643;28;21860;-70
2023/12/12 08:59:51;;;;;;;9.48;3.85;;;;;;;9.52;81.90;99827.84;4144076;22;20449;-67
2023/12/12 09:01:54;;;;;;;14.30;4.00;;;;;;;9.58;81.83;99824.44;4128659;28;20070;-67
2023/12/12 09:03:57;;;;;;;14.57;4.35;;;;;;;9.55;82.47;99826.97;4130202;28;20484;-67
2023/12/12 09:06:00;;;;;;;10.73;3.65;;;;;;;9.55;82.26;99827.88;4128337;28;20078;-67
2023/12/12 09:08:03;;;;;;;9.98;4.00;;;;;;;9.63;82.16;99840.03;4130114;28;20098;-67
2023/12/12 09:10:08;;;;;;;14.82;3.75;;;;;;;9.60;82.57;99825.31;4128372;28;20042;-68
2023/12/12 09:12:10;;;;;;;10.23;4.13;;;;;;;9.59;82.03;99827.03;4128557;28;20073;-67
2023/12/12 09:14:15;;;;;;;10.90;3.58;;;;;;;9.57;82.68;99828.75;4142631;28;20456;-67
2023/12/12 09:16:18;;;;;;;7.18;3.30;;;;;;;9.60;82.72;99807.13;4128999;28;20121;-67
2023/12/12 09:18:21;;;;;;;8.73;3.63;;;;;;;9.62;82.82;99802.81;4128842;28;20496;-66
2023/12/12 09:20:23;;;;;;;9.27;2.75;;;;;;;9.67;82.85;99810.66;4128997;28;20113;-66
2023/12/12 09:22:26;;;;;;;4.78;2.63;;;;;;;9.68;82.75;99822.75;4128908;28;20054;-66
2023/12/12 09:24:29;;;;;;;8.90;2.95;;;;;;;9.72;82.76;99815.00;4130492;28;20117;-66
2023/12/12 09:26:32;;;;;;;8.57;3.45;;;;;;;9.74;82.09;99802.94;4129514;28;20061;-66
2023/12/12 09:28:35;;;;;;;13.20;3.00;;;;;;;9.73;82.25;99801.19;4112514;28;20102;-66
2023/12/12 09:30:41;;;;;;;6.40;2.53;;;;;;;9.70;82.31;99793.38;4129939;28;20038;-66
2023/12/12 09:32:44;;;;;;;;;;;;;;;9.63;82.43;99794.19;4127899;28;20093;-66
2023/12/12 09:34:46;;;;;;;6.57;2.30;;;;;;;9.68;82.07;99797.69;4136660;28;20351;-66
2023/12/12 09:36:49;;;;;;;10.10;3.45;;;;;;;9.68;83.08;99791.63;4133383;28;20038;-66
2023/12/12 09:38:52;;;;;;;9.60;4.05;;;;;;;9.67;82.91;99795.09;4134412;28;20042;-66